sensor_id;sensor_type;location;lat;lon;timestamp;pressure;altitude;pressure_sealevel;temperature;humidity
73817;BME280;62146;53.232;-1.304;2022-08-04T00:22:06;100087.47;;;20.38;67.94
73817;BME280;62146;53.232;-1.304;2022-08-04T00:24:34;100086.38;;;20.39;68.05
73817;BME280;62146;53.232;-1.304;2022-08-04T00:27:02;100089.81;;;20.31;68.11
73817;BME280;62146;53.232;-1.304;2022-08-04T00:29:29;100081.91;;;20.34;68.14
73817;BME280;62146;53.232;-1.304;2022-08-04T00:31:56;100090.94;;;20.30;67.88
73817;BME280;62146;53.232;-1.304;2022-08-04T00:34:25;100090.63;;;20.39;67.60
73817;BME280;62146;53.232;-1.304;2022-08-04T00:36:53;100082.69;;;20.35;67.85
73817;BME280;62146;53.232;-1.304;2022-08-04T00:39:20;100083.81;;;20.34;67.91
73817;BME280;62146;53.232;-1.304;2022-08-04T00:44:36;100079.09;;;20.47;67.50
73817;BME280;62146;53.232;-1.304;2022-08-04T00:47:18;100076.56;;;20.42;67.90
73817;BME280;62146;53.232;-1.304;2022-08-04T00:55:56;100073.53;;;20.14;68.72
73817;BME280;62146;53.232;-1.304;2022-08-04T00:58:49;100077.59;;;20.33;68.23
73817;BME280;62146;53.232;-1.304;2022-08-04T01:04:23;100064.97;;;20.34;67.88
73817;BME280;62146;53.232;-1.304;2022-08-04T01:07:10;100072.78;;;20.22;68.42
73817;BME280;62146;53.232;-1.304;2022-08-04T01:10:00;100070.69;;;20.11;69.06
73817;BME280;62146;53.232;-1.304;2022-08-04T01:18:11;100074.03;;;20.16;69.32
73817;BME280;62146;53.232;-1.304;2022-08-04T01:26:28;100067.78;;;20.37;68.01
73817;BME280;62146;53.232;-1.304;2022-08-04T01:29:21;100071.44;;;20.33;67.91
73817;BME280;62146;53.232;-1.304;2022-08-04T01:32:02;100067.34;;;20.43;67.81
73817;BME280;62146;53.232;-1.304;2022-08-04T01:34:48;100064.47;;;20.32;68.05
73817;BME280;62146;53.232;-1.304;2022-08-04T01:40:12;100065.22;;;20.24;68.50
73817;BME280;62146;53.232;-1.304;2022-08-04T01:42:40;100067.38;;;20.13;68.86
73817;BME280;62146;53.232;-1.304;2022-08-04T01:45:09;100064.81;;;20.09;69.12
73817;BME280;62146;53.232;-1.304;2022-08-04T01:47:39;100061.75;;;20.02;69.75
73817;BME280;62146;53.232;-1.304;2022-08-04T01:50:12;100053.44;;;20.12;69.20
73817;BME280;62146;53.232;-1.304;2022-08-04T01:52:41;100063.09;;;20.13;69.25
73817;BME280;62146;53.232;-1.304;2022-08-04T01:55:15;100069.94;;;20.18;68.92
73817;BME280;62146;53.232;-1.304;2022-08-04T01:57:45;100054.66;;;20.06;69.36
73817;BME280;62146;53.232;-1.304;2022-08-04T02:00:20;100076.47;;;19.96;69.93
73817;BME280;62146;53.232;-1.304;2022-08-04T02:02:48;100060.78;;;19.98;69.63
73817;BME280;62146;53.232;-1.304;2022-08-04T02:05:17;100074.25;;;19.98;69.43
73817;BME280;62146;53.232;-1.304;2022-08-04T02:16:16;100072.22;;;19.38;72.75
73817;BME280;62146;53.232;-1.304;2022-08-04T02:21:40;100065.66;;;19.31;73.38
73817;BME280;62146;53.232;-1.304;2022-08-04T02:24:14;100057.81;;;19.21;73.91
73817;BME280;62146;53.232;-1.304;2022-08-04T02:26:41;100061.00;;;19.23;73.81
73817;BME280;62146;53.232;-1.304;2022-08-04T02:31:50;100061.53;;;19.12;74.64
73817;BME280;62146;53.232;-1.304;2022-08-04T02:34:28;100050.78;;;19.12;74.57
73817;BME280;62146;53.232;-1.304;2022-08-04T02:36:55;100061.63;;;19.07;74.76
73817;BME280;62146;53.232;-1.304;2022-08-04T02:39:25;100066.06;;;19.25;74.13
73817;BME280;62146;53.232;-1.304;2022-08-04T02:41:58;100067.84;;;19.29;73.82
73817;BME280;62146;53.232;-1.304;2022-08-04T02:44:27;100064.97;;;19.26;74.01
73817;BME280;62146;53.232;-1.304;2022-08-04T02:46:54;100059.38;;;19.22;74.20
73817;BME280;62146;53.232;-1.304;2022-08-04T02:49:21;100058.59;;;19.22;74.23
73817;BME280;62146;53.232;-1.304;2022-08-04T02:51:53;100063.00;;;19.18;74.34
73817;BME280;62146;53.232;-1.304;2022-08-04T02:54:29;100065.81;;;19.13;74.56
73817;BME280;62146;53.232;-1.304;2022-08-04T02:57:00;100060.03;;;19.06;74.76
73817;BME280;62146;53.232;-1.304;2022-08-04T02:59:29;100062.25;;;19.04;75.15
73817;BME280;62146;53.232;-1.304;2022-08-04T03:02:01;100063.53;;;19.06;74.95
73817;BME280;62146;53.232;-1.304;2022-08-04T03:04:44;100065.16;;;18.94;75.37
73817;BME280;62146;53.232;-1.304;2022-08-04T03:48:55;100084.06;;;18.89;75.65
73817;BME280;62146;53.232;-1.304;2022-08-04T03:51:33;100081.16;;;18.86;76.17
73817;BME280;62146;53.232;-1.304;2022-08-04T04:08:15;100079.06;;;18.56;77.59
73817;BME280;62146;53.232;-1.304;2022-08-04T04:25:15;100059.09;;;18.62;77.43
73817;BME280;62146;53.232;-1.304;2022-08-04T04:34:22;100092.69;;;18.47;78.02
73817;BME280;62146;53.232;-1.304;2022-08-04T04:39:25;100094.47;;;18.38;78.35
73817;BME280;62146;53.232;-1.304;2022-08-04T04:47:54;100108.41;;;18.40;78.77
73817;BME280;62146;53.232;-1.304;2022-08-04T04:53:58;100117.97;;;18.46;78.68
73817;BME280;62146;53.232;-1.304;2022-08-04T04:56:34;100120.44;;;18.42;79.02
73817;BME280;62146;53.232;-1.304;2022-08-04T04:59:02;100119.75;;;18.50;78.82
73817;BME280;62146;53.232;-1.304;2022-08-04T05:02:05;100123.75;;;18.52;78.82
73817;BME280;62146;53.232;-1.304;2022-08-04T05:13:35;100139.38;;;18.64;78.44
73817;BME280;62146;53.232;-1.304;2022-08-04T05:16:39;100149.44;;;18.72;78.86
73817;BME280;62146;53.232;-1.304;2022-08-04T05:21:59;100147.25;;;18.74;79.21
73817;BME280;62146;53.232;-1.304;2022-08-04T05:24:27;100152.00;;;18.77;78.91
73817;BME280;62146;53.232;-1.304;2022-08-04T05:27:02;100147.28;;;18.87;78.64
73817;BME280;62146;53.232;-1.304;2022-08-04T05:29:36;100160.22;;;18.98;78.04
73817;BME280;62146;53.232;-1.304;2022-08-04T05:32:10;100159.22;;;18.94;78.54
73817;BME280;62146;53.232;-1.304;2022-08-04T05:34:44;100162.41;;;18.96;78.42
73817;BME280;62146;53.232;-1.304;2022-08-04T05:37:18;100161.63;;;19.09;78.00
73817;BME280;62146;53.232;-1.304;2022-08-04T05:39:59;100158.50;;;19.29;77.43
73817;BME280;62146;53.232;-1.304;2022-08-04T05:42:30;100160.88;;;19.30;77.48
73817;BME280;62146;53.232;-1.304;2022-08-04T05:44:58;100163.88;;;19.29;77.29
73817;BME280;62146;53.232;-1.304;2022-08-04T05:47:25;100162.06;;;19.37;77.48
73817;BME280;62146;53.232;-1.304;2022-08-04T05:49:54;100164.75;;;19.37;77.70
73817;BME280;62146;53.232;-1.304;2022-08-04T05:52:29;100176.59;;;19.50;77.24
73817;BME280;62146;53.232;-1.304;2022-08-04T05:54:58;100172.81;;;19.37;77.96
73817;BME280;62146;53.232;-1.304;2022-08-04T05:57:26;100173.94;;;19.36;78.16
73817;BME280;62146;53.232;-1.304;2022-08-04T05:59:54;100169.41;;;19.45;77.98
73817;BME280;62146;53.232;-1.304;2022-08-04T06:02:23;100170.13;;;19.37;78.51
73817;BME280;62146;53.232;-1.304;2022-08-04T06:04:51;100169.34;;;19.50;77.98
73817;BME280;62146;53.232;-1.304;2022-08-04T06:07:18;100171.59;;;19.57;78.44
73817;BME280;62146;53.232;-1.304;2022-08-04T06:09:45;100173.47;;;19.69;77.55
73817;BME280;62146;53.232;-1.304;2022-08-04T06:12:25;100186.72;;;19.79;77.39
73817;BME280;62146;53.232;-1.304;2022-08-04T06:14:54;100186.16;;;19.90;76.90
73817;BME280;62146;53.232;-1.304;2022-08-04T06:17:30;100189.25;;;19.97;76.51
73817;BME280;62146;53.232;-1.304;2022-08-04T06:20:18;100191.06;;;20.10;75.80
73817;BME280;62146;53.232;-1.304;2022-08-04T06:22:54;100199.16;;;20.32;74.82
73817;BME280;62146;53.232;-1.304;2022-08-04T06:25:28;100196.53;;;20.40;74.65
73817;BME280;62146;53.232;-1.304;2022-08-04T06:27:57;100201.97;;;20.70;73.22
73817;BME280;62146;53.232;-1.304;2022-08-04T06:30:25;100200.78;;;20.54;72.97
73817;BME280;62146;53.232;-1.304;2022-08-04T06:32:54;100206.09;;;20.46;73.30
73817;BME280;62146;53.232;-1.304;2022-08-04T06:35:30;100212.50;;;20.37;73.97
73817;BME280;62146;53.232;-1.304;2022-08-04T06:37:58;100210.50;;;20.42;74.00
73817;BME280;62146;53.232;-1.304;2022-08-04T06:40:27;100221.03;;;20.30;74.19
73817;BME280;62146;53.232;-1.304;2022-08-04T06:42:57;100220.34;;;20.25;74.56
73817;BME280;62146;53.232;-1.304;2022-08-04T06:45:25;100217.28;;;20.39;73.95
73817;BME280;62146;53.232;-1.304;2022-08-04T06:47:53;100218.94;;;20.49;73.50
73817;BME280;62146;53.232;-1.304;2022-08-04T06:50:20;100235.13;;;20.49;73.50
73817;BME280;62146;53.232;-1.304;2022-08-04T06:53:07;100225.63;;;20.51;73.04
73817;BME280;62146;53.232;-1.304;2022-08-04T06:55:34;100233.66;;;20.65;72.34
73817;BME280;62146;53.232;-1.304;2022-08-04T06:58:02;100238.19;;;20.56;72.77
73817;BME280;62146;53.232;-1.304;2022-08-04T07:00:30;100238.59;;;20.71;72.78
73817;BME280;62146;53.232;-1.304;2022-08-04T07:02:58;100243.00;;;20.89;71.65
73817;BME280;62146;53.232;-1.304;2022-08-04T07:05:25;100243.38;;;20.74;71.80
73817;BME280;62146;53.232;-1.304;2022-08-04T07:07:52;100247.66;;;20.75;71.44
73817;BME280;62146;53.232;-1.304;2022-08-04T07:10:25;100251.63;;;20.99;70.92
73817;BME280;62146;53.232;-1.304;2022-08-04T07:12:57;100254.06;;;21.17;69.93
73817;BME280;62146;53.232;-1.304;2022-08-04T07:15:25;100250.06;;;21.06;69.92
73817;BME280;62146;53.232;-1.304;2022-08-04T07:17:53;100253.84;;;21.05;70.48
73817;BME280;62146;53.232;-1.304;2022-08-04T07:20:20;100246.09;;;21.12;69.48
73817;BME280;62146;53.232;-1.304;2022-08-04T07:23:02;100266.91;;;21.12;69.28
73817;BME280;62146;53.232;-1.304;2022-08-04T07:25:29;100261.47;;;21.03;69.55
73817;BME280;62146;53.232;-1.304;2022-08-04T07:28:16;100257.66;;;21.04;69.80
73817;BME280;62146;53.232;-1.304;2022-08-04T07:30:43;100262.09;;;21.00;69.44
73817;BME280;62146;53.232;-1.304;2022-08-04T07:33:10;100272.34;;;20.90;69.16
73817;BME280;62146;53.232;-1.304;2022-08-04T07:35:37;100261.41;;;20.65;69.93
73817;BME280;62146;53.232;-1.304;2022-08-04T07:38:25;100263.78;;;20.67;69.87
73817;BME280;62146;53.232;-1.304;2022-08-04T07:40:54;100267.09;;;20.64;70.38
73817;BME280;62146;53.232;-1.304;2022-08-04T07:43:21;100275.13;;;20.77;69.88
73817;BME280;62146;53.232;-1.304;2022-08-04T07:45:48;100271.31;;;20.78;69.85
73817;BME280;62146;53.232;-1.304;2022-08-04T07:48:15;100270.84;;;20.76;69.21
73817;BME280;62146;53.232;-1.304;2022-08-04T07:50:44;100282.72;;;20.75;69.16
73817;BME280;62146;53.232;-1.304;2022-08-04T07:53:12;100284.31;;;20.54;68.87
73817;BME280;62146;53.232;-1.304;2022-08-04T07:55:59;100286.50;;;20.74;68.53
73817;BME280;62146;53.232;-1.304;2022-08-04T07:58:26;100294.97;;;20.81;67.75
73817;BME280;62146;53.232;-1.304;2022-08-04T08:00:56;100284.97;;;20.81;68.03
73817;BME280;62146;53.232;-1.304;2022-08-04T08:03:23;100287.34;;;20.83;66.28
73817;BME280;62146;53.232;-1.304;2022-08-04T08:05:50;100304.00;;;20.76;66.01
73817;BME280;62146;53.232;-1.304;2022-08-04T08:08:38;100299.34;;;20.68;65.21
73817;BME280;62146;53.232;-1.304;2022-08-04T08:11:06;100298.47;;;20.81;64.80
73817;BME280;62146;53.232;-1.304;2022-08-04T08:13:35;100305.34;;;20.87;64.22
73817;BME280;62146;53.232;-1.304;2022-08-04T08:16:02;100304.03;;;20.85;63.47
73817;BME280;62146;53.232;-1.304;2022-08-04T08:18:30;100302.00;;;20.90;66.60
73817;BME280;62146;53.232;-1.304;2022-08-04T08:20:57;100304.09;;;21.23;65.85
73817;BME280;62146;53.232;-1.304;2022-08-04T08:23:25;100297.41;;;21.50;65.10
73817;BME280;62146;53.232;-1.304;2022-08-04T08:25:51;100315.47;;;21.42;64.07
73817;BME280;62146;53.232;-1.304;2022-08-04T08:28:18;100322.16;;;21.44;64.59
73817;BME280;62146;53.232;-1.304;2022-08-04T08:30:45;100314.88;;;21.53;62.25
73817;BME280;62146;53.232;-1.304;2022-08-04T08:33:19;100315.06;;;21.56;61.44
73817;BME280;62146;53.232;-1.304;2022-08-04T08:35:55;100315.00;;;21.86;61.36
73817;BME280;62146;53.232;-1.304;2022-08-04T08:52:50;100326.53;;;22.25;58.20
73817;BME280;62146;53.232;-1.304;2022-08-04T08:55:39;100329.09;;;22.47;57.21
73817;BME280;62146;53.232;-1.304;2022-08-04T09:09:46;100340.53;;;23.02;52.96
73817;BME280;62146;53.232;-1.304;2022-08-04T09:12:44;100339.72;;;23.02;52.07
73817;BME280;62146;53.232;-1.304;2022-08-04T09:15:39;100340.47;;;23.19;52.04
73817;BME280;62146;53.232;-1.304;2022-08-04T09:18:21;100337.53;;;23.40;51.61
73817;BME280;62146;53.232;-1.304;2022-08-04T09:20:52;100342.75;;;23.91;52.08
73817;BME280;62146;53.232;-1.304;2022-08-04T09:23:29;100338.28;;;23.12;50.39
73817;BME280;62146;53.232;-1.304;2022-08-04T09:26:14;100351.88;;;23.41;50.40
73817;BME280;62146;53.232;-1.304;2022-08-04T09:31:29;100360.69;;;23.75;50.12
73817;BME280;62146;53.232;-1.304;2022-08-04T09:34:40;100345.50;;;23.82;49.06
73817;BME280;62146;53.232;-1.304;2022-08-04T09:40:10;100327.81;;;23.85;48.67
73817;BME280;62146;53.232;-1.304;2022-08-04T09:48:43;100339.91;;;23.87;46.49
73817;BME280;62146;53.232;-1.304;2022-08-04T09:51:23;100337.13;;;24.04;47.38
73817;BME280;62146;53.232;-1.304;2022-08-04T09:54:17;100331.22;;;24.30;47.27
73817;BME280;62146;53.232;-1.304;2022-08-04T09:57:03;100344.84;;;24.22;46.46
73817;BME280;62146;53.232;-1.304;2022-08-04T10:02:17;100348.28;;;23.20;46.31
73817;BME280;62146;53.232;-1.304;2022-08-04T10:04:48;100346.50;;;23.78;45.79
73817;BME280;62146;53.232;-1.304;2022-08-04T10:07:40;100344.69;;;24.59;46.02
73817;BME280;62146;53.232;-1.304;2022-08-04T10:13:25;100345.59;;;25.03;43.15
73817;BME280;62146;53.232;-1.304;2022-08-04T10:16:04;100342.47;;;25.25;43.64
73817;BME280;62146;53.232;-1.304;2022-08-04T10:18:47;100352.69;;;25.27;44.25
73817;BME280;62146;53.232;-1.304;2022-08-04T10:24:38;100349.34;;;24.38;42.87
73817;BME280;62146;53.232;-1.304;2022-08-04T10:27:15;100355.25;;;24.12;43.71
73817;BME280;62146;53.232;-1.304;2022-08-04T10:29:47;100347.88;;;24.41;43.60
73817;BME280;62146;53.232;-1.304;2022-08-04T10:32:24;100347.69;;;24.86;42.65
73817;BME280;62146;53.232;-1.304;2022-08-04T10:35:22;100347.53;;;25.02;42.77
73817;BME280;62146;53.232;-1.304;2022-08-04T10:38:04;100344.56;;;25.39;42.43
73817;BME280;62146;53.232;-1.304;2022-08-04T10:40:42;100350.03;;;25.51;42.45
73817;BME280;62146;53.232;-1.304;2022-08-04T10:46:00;100351.31;;;25.77;41.29
73817;BME280;62146;53.232;-1.304;2022-08-04T10:48:48;100343.72;;;26.18;41.94
73817;BME280;62146;53.232;-1.304;2022-08-04T10:51:29;100346.16;;;26.46;41.77
73817;BME280;62146;53.232;-1.304;2022-08-04T10:57:20;100363.19;;;26.43;40.97
73817;BME280;62146;53.232;-1.304;2022-08-04T10:59:58;100364.09;;;26.47;39.21
73817;BME280;62146;53.232;-1.304;2022-08-04T11:02:36;100362.00;;;26.68;38.67
73817;BME280;62146;53.232;-1.304;2022-08-04T11:08:32;100371.41;;;26.70;38.85
73817;BME280;62146;53.232;-1.304;2022-08-04T11:14:03;100368.66;;;26.82;38.18
73817;BME280;62146;53.232;-1.304;2022-08-04T11:17:25;100367.06;;;27.08;38.26
73817;BME280;62146;53.232;-1.304;2022-08-04T11:19:48;100368.22;;;27.22;38.23
73817;BME280;62146;53.232;-1.304;2022-08-04T11:22:26;100379.94;;;27.50;38.47
73817;BME280;62146;53.232;-1.304;2022-08-04T11:25:05;100376.84;;;27.51;39.52
73817;BME280;62146;53.232;-1.304;2022-08-04T11:27:42;100377.59;;;27.10;38.19
73817;BME280;62146;53.232;-1.304;2022-08-04T11:30:13;100378.50;;;27.41;38.04
73817;BME280;62146;53.232;-1.304;2022-08-04T11:33:57;100382.72;;;28.29;38.14
73817;BME280;62146;53.232;-1.304;2022-08-04T11:36:18;100381.56;;;28.30;38.31
73817;BME280;62146;53.232;-1.304;2022-08-04T11:38:52;100375.28;;;28.79;37.48
73817;BME280;62146;53.232;-1.304;2022-08-04T11:42:18;100396.97;;;28.72;37.14
73817;BME280;62146;53.232;-1.304;2022-08-04T11:44:30;100396.94;;;29.06;37.10
73817;BME280;62146;53.232;-1.304;2022-08-04T11:47:02;100395.31;;;29.42;36.51
73817;BME280;62146;53.232;-1.304;2022-08-04T11:49:34;100402.41;;;29.88;36.61
73817;BME280;62146;53.232;-1.304;2022-08-04T11:52:25;100392.25;;;29.25;36.43
73817;BME280;62146;53.232;-1.304;2022-08-04T11:54:53;100405.84;;;29.22;37.42
73817;BME280;62146;53.232;-1.304;2022-08-04T11:57:24;100404.66;;;28.02;38.74
73817;BME280;62146;53.232;-1.304;2022-08-04T12:00:04;100411.50;;;28.27;38.34
73817;BME280;62146;53.232;-1.304;2022-08-04T12:05:07;100407.13;;;29.09;37.82
73817;BME280;62146;53.232;-1.304;2022-08-04T12:08:00;100416.44;;;28.71;38.30
73817;BME280;62146;53.232;-1.304;2022-08-04T12:10:41;100413.41;;;29.09;37.68
73817;BME280;62146;53.232;-1.304;2022-08-04T12:16:02;100423.25;;;29.14;37.81
73817;BME280;62146;53.232;-1.304;2022-08-04T12:18:44;100416.28;;;29.76;37.22
73817;BME280;62146;53.232;-1.304;2022-08-04T12:21:24;100426.38;;;29.72;37.60
73817;BME280;62146;53.232;-1.304;2022-08-04T12:23:57;100430.44;;;29.81;37.23
73817;BME280;62146;53.232;-1.304;2022-08-04T12:26:29;100425.53;;;29.49;37.69
73817;BME280;62146;53.232;-1.304;2022-08-04T12:29:00;100425.44;;;30.09;37.14
73817;BME280;62146;53.232;-1.304;2022-08-04T12:31:44;100426.50;;;29.79;37.08
73817;BME280;62146;53.232;-1.304;2022-08-04T12:37:09;100427.56;;;29.96;36.64
73817;BME280;62146;53.232;-1.304;2022-08-04T12:39:47;100441.03;;;30.05;36.00
73817;BME280;62146;53.232;-1.304;2022-08-04T12:42:43;100430.19;;;30.12;36.11
73817;BME280;62146;53.232;-1.304;2022-08-04T12:45:25;100417.75;;;30.40;36.08
73817;BME280;62146;53.232;-1.304;2022-08-04T12:47:53;100425.56;;;30.63;35.95
73817;BME280;62146;53.232;-1.304;2022-08-04T12:50:22;100424.66;;;31.14;35.38
73817;BME280;62146;53.232;-1.304;2022-08-04T12:52:53;100429.38;;;30.59;36.00
73817;BME280;62146;53.232;-1.304;2022-08-04T12:55:32;100436.63;;;30.70;35.50
73817;BME280;62146;53.232;-1.304;2022-08-04T12:58:01;100432.72;;;31.29;35.08
73817;BME280;62146;53.232;-1.304;2022-08-04T13:00:33;100436.38;;;31.11;34.28
73817;BME280;62146;53.232;-1.304;2022-08-04T13:03:12;100440.91;;;31.97;34.03
73817;BME280;62146;53.232;-1.304;2022-08-04T13:05:41;100447.63;;;32.03;34.08
73817;BME280;62146;53.232;-1.304;2022-08-04T13:08:09;100454.59;;;31.94;34.06
73817;BME280;62146;53.232;-1.304;2022-08-04T13:10:42;100464.38;;;29.99;35.85
73817;BME280;62146;53.232;-1.304;2022-08-04T13:13:14;100455.75;;;29.00;37.81
73817;BME280;62146;53.232;-1.304;2022-08-04T13:15:42;100444.22;;;29.66;36.95
73817;BME280;62146;53.232;-1.304;2022-08-04T13:18:22;100456.53;;;29.75;35.95
73817;BME280;62146;53.232;-1.304;2022-08-04T13:21:06;100441.31;;;31.27;34.13
73817;BME280;62146;53.232;-1.304;2022-08-04T13:23:49;100441.09;;;32.71;32.78
73817;BME280;62146;53.232;-1.304;2022-08-04T13:26:46;100437.69;;;32.31;32.64
73817;BME280;62146;53.232;-1.304;2022-08-04T13:29:23;100449.94;;;30.20;34.38
73817;BME280;62146;53.232;-1.304;2022-08-04T13:32:15;100451.41;;;29.96;33.92
73817;BME280;62146;53.232;-1.304;2022-08-04T13:34:42;100455.84;;;30.04;34.09
73817;BME280;62146;53.232;-1.304;2022-08-04T13:37:21;100448.59;;;31.49;32.09
73817;BME280;62146;53.232;-1.304;2022-08-04T13:39:51;100450.28;;;31.25;30.25
73817;BME280;62146;53.232;-1.304;2022-08-04T13:42:21;100441.66;;;31.58;30.22
73817;BME280;62146;53.232;-1.304;2022-08-04T13:44:54;100448.88;;;32.62;29.34
73817;BME280;62146;53.232;-1.304;2022-08-04T13:47:26;100435.84;;;33.15;29.86
73817;BME280;62146;53.232;-1.304;2022-08-04T13:50:14;100444.84;;;30.70;30.78
73817;BME280;62146;53.232;-1.304;2022-08-04T13:52:42;100442.16;;;29.41;32.42
73817;BME280;62146;53.232;-1.304;2022-08-04T13:55:23;100460.47;;;27.47;34.08
73817;BME280;62146;53.232;-1.304;2022-08-04T13:57:55;100458.38;;;26.90;36.29
73817;BME280;62146;53.232;-1.304;2022-08-04T14:00:24;100466.06;;;27.00;36.70
73817;BME280;62146;53.232;-1.304;2022-08-04T14:03:01;100460.84;;;29.76;33.90
73817;BME280;62146;53.232;-1.304;2022-08-04T14:08:35;100464.13;;;31.06;31.02
73817;BME280;62146;53.232;-1.304;2022-08-04T14:11:08;100458.63;;;32.03;30.63
73817;BME280;62146;53.232;-1.304;2022-08-04T14:13:55;100463.84;;;30.85;30.54
73817;BME280;62146;53.232;-1.304;2022-08-04T14:16:21;100467.66;;;27.01;34.78
73817;BME280;62146;53.232;-1.304;2022-08-04T14:18:59;100488.59;;;26.74;35.52
73817;BME280;62146;53.232;-1.304;2022-08-04T14:21:27;100484.84;;;26.66;35.41
73817;BME280;62146;53.232;-1.304;2022-08-04T14:23:55;100473.06;;;26.74;34.94
73817;BME280;62146;53.232;-1.304;2022-08-04T14:26:31;100484.50;;;27.18;34.28
73817;BME280;62146;53.232;-1.304;2022-08-04T14:29:08;100480.25;;;27.60;34.36
73817;BME280;62146;53.232;-1.304;2022-08-04T14:32:05;100466.72;;;30.96;30.99
73817;BME280;62146;53.232;-1.304;2022-08-04T14:34:42;100471.19;;;28.28;32.71
73817;BME280;62146;53.232;-1.304;2022-08-04T14:37:15;100472.47;;;26.81;34.92
73817;BME280;62146;53.232;-1.304;2022-08-04T14:39:47;100480.53;;;25.43;37.29
73817;BME280;62146;53.232;-1.304;2022-08-04T14:42:47;100472.38;;;25.63;36.77
73817;BME280;62146;53.232;-1.304;2022-08-04T14:45:40;100483.31;;;25.34;36.75
73817;BME280;62146;53.232;-1.304;2022-08-04T14:48:20;100484.84;;;25.24;37.09
73817;BME280;62146;53.232;-1.304;2022-08-04T14:50:48;100477.56;;;26.11;37.29
73817;BME280;62146;53.232;-1.304;2022-08-04T14:53:18;100479.09;;;27.72;34.46
73817;BME280;62146;53.232;-1.304;2022-08-04T14:55:49;100489.28;;;28.82;33.27
73817;BME280;62146;53.232;-1.304;2022-08-04T14:58:21;100475.97;;;29.52;32.70
73817;BME280;62146;53.232;-1.304;2022-08-04T15:01:05;100482.41;;;29.81;32.48
73817;BME280;62146;53.232;-1.304;2022-08-04T15:03:42;100483.63;;;28.26;34.45
73817;BME280;62146;53.232;-1.304;2022-08-04T15:06:19;100489.44;;;28.89;33.79
73817;BME280;62146;53.232;-1.304;2022-08-04T15:08:49;100485.28;;;29.88;33.07
73817;BME280;62146;53.232;-1.304;2022-08-04T15:11:16;100480.94;;;30.06;32.57
73817;BME280;62146;53.232;-1.304;2022-08-04T15:13:52;100477.78;;;30.73;32.25
73817;BME280;62146;53.232;-1.304;2022-08-04T15:16:20;100481.56;;;31.52;31.47
73817;BME280;62146;53.232;-1.304;2022-08-04T15:18:47;100490.94;;;31.48;31.02
73817;BME280;62146;53.232;-1.304;2022-08-04T15:21:15;100487.25;;;30.79;31.70
73817;BME280;62146;53.232;-1.304;2022-08-04T15:23:42;100484.53;;;31.37;31.43
73817;BME280;62146;53.232;-1.304;2022-08-04T15:26:12;100486.69;;;29.41;32.78
73817;BME280;62146;53.232;-1.304;2022-08-04T15:28:46;100491.00;;;27.14;34.49
73817;BME280;62146;53.232;-1.304;2022-08-04T15:31:15;100495.75;;;26.55;35.76
73817;BME280;62146;53.232;-1.304;2022-08-04T15:34:04;100508.38;;;25.20;37.36
73817;BME280;62146;53.232;-1.304;2022-08-04T15:36:51;100508.97;;;25.77;37.17
73817;BME280;62146;53.232;-1.304;2022-08-04T15:39:37;100501.56;;;25.66;36.98
73817;BME280;62146;53.232;-1.304;2022-08-04T15:42:29;100501.44;;;25.62;37.14
73817;BME280;62146;53.232;-1.304;2022-08-04T15:45:15;100494.66;;;28.45;34.66
73817;BME280;62146;53.232;-1.304;2022-08-04T15:50:31;100486.75;;;32.86;28.66
73817;BME280;62146;53.232;-1.304;2022-08-04T15:52:58;100491.06;;;33.60;27.75
73817;BME280;62146;53.232;-1.304;2022-08-04T15:55:40;100498.31;;;34.37;27.34
73817;BME280;62146;53.232;-1.304;2022-08-04T15:58:10;100494.34;;;34.82;26.63
73817;BME280;62146;53.232;-1.304;2022-08-04T16:19:34;100522.22;;;29.57;31.87
73817;BME280;62146;53.232;-1.304;2022-08-04T16:22:33;100509.06;;;31.24;30.80
73817;BME280;62146;53.232;-1.304;2022-08-04T16:25:00;100515.19;;;34.08;28.39
73817;BME280;62146;53.232;-1.304;2022-08-04T16:27:38;100510.81;;;35.27;27.58
73817;BME280;62146;53.232;-1.304;2022-08-04T16:30:06;100519.19;;;34.76;27.17
73817;BME280;62146;53.232;-1.304;2022-08-04T16:32:41;100523.94;;;34.58;27.75
73817;BME280;62146;53.232;-1.304;2022-08-04T16:35:25;100516.41;;;35.07;27.66
73817;BME280;62146;53.232;-1.304;2022-08-04T16:38:10;100529.72;;;30.44;31.22
73817;BME280;62146;53.232;-1.304;2022-08-04T16:40:39;100529.63;;;30.85;31.02
73817;BME280;62146;53.232;-1.304;2022-08-04T16:43:14;100544.09;;;32.34;28.54
73817;BME280;62146;53.232;-1.304;2022-08-04T16:45:52;100530.38;;;31.08;30.17
73817;BME280;62146;53.232;-1.304;2022-08-04T16:48:24;100532.63;;;32.68;29.50
73817;BME280;62146;53.232;-1.304;2022-08-04T16:50:58;100528.91;;;33.00;29.00
73817;BME280;62146;53.232;-1.304;2022-08-04T16:56:30;100533.84;;;32.31;29.71
73817;BME280;62146;53.232;-1.304;2022-08-04T16:59:05;100545.91;;;32.66;28.93
73817;BME280;62146;53.232;-1.304;2022-08-04T17:01:33;100550.53;;;32.16;29.57
73817;BME280;62146;53.232;-1.304;2022-08-04T17:04:01;100542.50;;;32.36;29.36
73817;BME280;62146;53.232;-1.304;2022-08-04T17:06:38;100546.63;;;32.17;29.46
73817;BME280;62146;53.232;-1.304;2022-08-04T17:09:15;100552.81;;;30.91;30.60
73817;BME280;62146;53.232;-1.304;2022-08-04T17:11:44;100549.69;;;31.44;30.18
73817;BME280;62146;53.232;-1.304;2022-08-04T17:14:11;100539.66;;;31.90;29.85
73817;BME280;62146;53.232;-1.304;2022-08-04T17:16:41;100540.69;;;31.76;30.19
73817;BME280;62146;53.232;-1.304;2022-08-04T17:19:09;100548.47;;;31.41;30.72
73817;BME280;62146;53.232;-1.304;2022-08-04T17:21:56;100556.84;;;31.80;30.39
73817;BME280;62146;53.232;-1.304;2022-08-04T17:24:36;100549.91;;;31.61;30.67
73817;BME280;62146;53.232;-1.304;2022-08-04T17:27:04;100559.13;;;29.32;32.08
73817;BME280;62146;53.232;-1.304;2022-08-04T17:29:51;100555.22;;;28.35;33.55
73817;BME280;62146;53.232;-1.304;2022-08-04T17:32:19;100551.00;;;27.68;34.61
73817;BME280;62146;53.232;-1.304;2022-08-04T17:34:52;100568.41;;;27.13;34.97
73817;BME280;62146;53.232;-1.304;2022-08-04T17:37:21;100557.78;;;27.08;34.75